createdAt,value
2022-07-25T00:00:28.671Z,20.50
2022-07-25T00:03:27.094Z,20.40
2022-07-25T00:06:25.407Z,20.20
2022-07-25T00:09:22.261Z,19.90
2022-07-25T00:12:19.733Z,20.10
2022-07-25T00:15:16.675Z,20.00
2022-07-25T00:18:13.526Z,19.80
2022-07-25T00:21:10.676Z,19.70
2022-07-25T00:24:08.190Z,19.90
2022-07-25T00:27:05.598Z,19.70
2022-07-25T00:30:02.767Z,19.60
2022-07-25T00:32:59.608Z,19.40
2022-07-25T00:35:56.453Z,19.30
2022-07-25T00:38:53.367Z,19.30
2022-07-25T00:41:50.330Z,19.30
2022-07-25T00:44:47.187Z,19.30
2022-07-25T00:47:44.049Z,19.20
2022-07-25T00:50:41.086Z,19.40
2022-07-25T00:53:39.498Z,19.00
2022-07-25T00:56:37.083Z,19.00
2022-07-25T00:59:34.094Z,19.30
2022-07-25T01:02:31.011Z,19.60
2022-07-25T01:05:28.036Z,19.60
2022-07-25T01:08:25.308Z,19.20
2022-07-25T01:11:22.974Z,19.10
2022-07-25T01:14:19.823Z,19.30
2022-07-25T01:17:16.889Z,19.10
2022-07-25T01:20:21.860Z,19.10
2022-07-25T01:23:18.686Z,19.30
2022-07-25T01:26:15.524Z,19.40
2022-07-25T01:29:12.371Z,19.10
2022-07-25T01:32:09.214Z,19.10
2022-07-25T01:35:08.235Z,19.00
2022-07-25T01:38:05.057Z,18.90
2022-07-25T01:41:01.926Z,18.80
2022-07-25T01:43:58.807Z,18.80
2022-07-25T01:46:55.646Z,18.60
2022-07-25T01:49:52.871Z,18.60
2022-07-25T01:52:49.724Z,19.10
2022-07-25T01:55:47.238Z,18.80
2022-07-25T02:01:41.299Z,18.60
2022-07-25T02:04:38.195Z,18.70
2022-07-25T02:07:35.623Z,18.60
2022-07-25T02:10:32.801Z,18.60
2022-07-25T02:13:29.690Z,18.80
2022-07-25T02:16:29.057Z,18.60
2022-07-25T02:19:26.328Z,18.60
2022-07-25T02:22:23.231Z,18.70
2022-07-25T02:25:20.667Z,18.40
2022-07-25T02:28:18.145Z,18.40
2022-07-25T02:31:15.149Z,18.30
2022-07-25T02:34:12.424Z,18.20
2022-07-25T02:37:09.241Z,18.60
2022-07-25T02:40:07.408Z,18.50
2022-07-25T02:43:04.225Z,18.30
2022-07-25T02:46:01.161Z,18.30
2022-07-25T02:48:59.036Z,18.20
2022-07-25T02:51:57.550Z,18.20
2022-07-25T02:54:54.379Z,18.10
2022-07-25T02:57:51.307Z,18.30
2022-07-25T03:00:48.188Z,18.20
2022-07-25T03:03:45.082Z,18.20
2022-07-25T03:06:41.963Z,18.00
2022-07-25T03:09:38.809Z,18.10
2022-07-25T03:12:36.411Z,18.10
2022-07-25T03:15:33.264Z,17.90
2022-07-25T03:18:30.114Z,17.90
2022-07-25T03:21:26.949Z,17.90
2022-07-25T03:24:23.778Z,17.90
2022-07-25T03:27:20.628Z,17.80
2022-07-25T03:30:17.597Z,17.70
2022-07-25T03:33:14.412Z,17.70
2022-07-25T03:36:11.697Z,17.70
2022-07-25T03:39:08.573Z,17.50
2022-07-25T03:42:05.516Z,17.40
2022-07-25T03:45:02.646Z,17.50
2022-07-25T03:47:59.502Z,17.50
2022-07-25T03:50:57.352Z,17.40
2022-07-25T03:54:03.814Z,17.40
2022-07-25T03:57:01.313Z,17.60
2022-07-25T03:59:58.143Z,17.70
2022-07-25T04:02:54.979Z,17.90
2022-07-25T04:05:51.810Z,17.70
2022-07-25T04:08:48.777Z,17.70
2022-07-25T04:11:45.602Z,17.70
2022-07-25T04:14:42.455Z,17.70
2022-07-25T04:17:39.496Z,17.70
2022-07-25T04:20:37.548Z,17.60
2022-07-25T04:23:34.791Z,17.60
2022-07-25T04:26:31.685Z,17.50
2022-07-25T04:29:29.428Z,17.80
2022-07-25T04:32:26.308Z,17.80
2022-07-25T04:35:23.461Z,18.00
2022-07-25T04:38:20.672Z,18.10
2022-07-25T04:41:17.723Z,18.10
2022-07-25T04:44:14.624Z,18.00
2022-07-25T04:47:11.506Z,18.10
2022-07-25T04:50:09.007Z,18.00
2022-07-25T04:53:06.101Z,18.10
2022-07-25T04:56:02.968Z,18.20
2022-07-25T04:59:06.352Z,18.20
2022-07-25T05:02:04.265Z,18.30
2022-07-25T05:05:02.881Z,18.20
2022-07-25T05:08:00.984Z,18.40
2022-07-25T05:10:57.897Z,18.30
2022-07-25T05:13:54.784Z,18.40
2022-07-25T05:16:51.651Z,18.40
2022-07-25T05:19:48.537Z,18.50
2022-07-25T05:22:45.445Z,18.50
2022-07-25T05:25:42.362Z,18.50
2022-07-25T05:28:39.429Z,18.50
2022-07-25T05:31:37.112Z,18.50
2022-07-25T05:34:35.844Z,18.60
2022-07-25T05:37:32.663Z,18.60
2022-07-25T05:40:29.500Z,18.60
2022-07-25T05:43:26.586Z,18.70
2022-07-25T05:46:23.432Z,18.80
2022-07-25T05:49:23.013Z,18.80
2022-07-25T05:52:19.853Z,19.00
2022-07-25T05:55:17.582Z,19.10
2022-07-25T05:58:14.734Z,19.20
2022-07-25T06:01:15.921Z,19.50
2022-07-25T06:04:12.766Z,19.50
2022-07-25T06:07:09.597Z,19.60
2022-07-25T06:10:09.649Z,19.90
2022-07-25T06:13:06.557Z,20.00
2022-07-25T06:16:04.709Z,20.10
2022-07-25T06:19:01.605Z,20.40
2022-07-25T06:21:58.478Z,20.60
2022-07-25T06:24:55.314Z,20.60
2022-07-25T06:27:52.142Z,20.80
2022-07-25T06:30:48.979Z,21.00
2022-07-25T06:33:45.884Z,21.10
2022-07-25T06:36:42.710Z,21.30
2022-07-25T06:39:43.837Z,21.40
2022-07-25T06:42:44.886Z,21.60
2022-07-25T06:45:46.988Z,21.70
2022-07-25T06:48:43.857Z,21.90
2022-07-25T06:51:40.713Z,22.10
2022-07-25T06:54:37.593Z,22.10
2022-07-25T06:57:34.487Z,22.30
2022-07-25T07:00:31.411Z,22.50
2022-07-25T07:03:28.633Z,22.40
2022-07-25T07:06:25.567Z,22.50
2022-07-25T07:09:22.436Z,22.60
2022-07-25T07:12:19.266Z,22.90
2022-07-25T07:15:17.251Z,22.90
2022-07-25T07:18:14.090Z,23.00
2022-07-25T07:21:11.031Z,23.00
2022-07-25T07:24:24.029Z,23.00
2022-07-25T07:27:23.577Z,23.10
2022-07-25T07:30:24.881Z,23.30
2022-07-25T07:33:26.757Z,23.30
2022-07-25T07:36:23.612Z,23.40
2022-07-25T07:39:20.456Z,23.60
2022-07-25T07:42:17.421Z,23.60
2022-07-25T07:45:22.587Z,23.80
2022-07-25T07:48:19.411Z,23.80
2022-07-25T07:51:16.260Z,23.90
2022-07-25T07:54:31.583Z,24.20
2022-07-25T07:57:28.402Z,24.30
2022-07-25T08:00:31.049Z,24.20
2022-07-25T08:03:27.902Z,24.30
2022-07-25T08:06:24.879Z,24.70
2022-07-25T08:09:21.798Z,24.50
2022-07-25T08:12:18.616Z,24.50
2022-07-25T08:15:16.351Z,24.60
2022-07-25T08:18:16.933Z,24.90
2022-07-25T08:21:14.921Z,25.30
2022-07-25T08:24:11.787Z,25.40
2022-07-25T08:27:08.642Z,25.50
2022-07-25T08:30:08.007Z,25.80
2022-07-25T08:33:10.516Z,26.10
2022-07-25T08:36:10.785Z,26.20
2022-07-25T08:39:07.646Z,26.50
2022-07-25T08:42:10.626Z,26.80
2022-07-25T08:45:10.545Z,27.10
2022-07-25T08:48:07.512Z,27.10
2022-07-25T08:51:05.779Z,27.20
2022-07-25T08:54:03.431Z,27.50
2022-07-25T08:57:00.483Z,27.60
2022-07-25T08:59:59.404Z,27.90
2022-07-25T09:03:01.841Z,28.00
2022-07-25T09:05:59.121Z,28.30
2022-07-25T09:08:59.770Z,28.40
2022-07-25T09:11:56.671Z,28.60
2022-07-25T09:14:53.817Z,28.80
2022-07-25T09:17:52.504Z,29.00
2022-07-25T09:20:58.578Z,29.20
2022-07-25T09:23:55.436Z,29.40
2022-07-25T09:26:56.527Z,29.50
2022-07-25T09:29:53.447Z,29.70
2022-07-25T09:33:03.299Z,29.90
2022-07-25T09:36:11.907Z,30.10
2022-07-25T09:39:08.760Z,30.30
2022-07-25T09:42:25.391Z,30.40
2022-07-25T09:45:22.289Z,30.80
2022-07-25T09:48:21.009Z,30.70
2022-07-25T09:51:17.901Z,31.20
2022-07-25T09:54:15.625Z,31.10
2022-07-25T09:57:12.584Z,31.10
2022-07-25T10:00:10.220Z,31.80
2022-07-25T10:03:39.167Z,31.80
2022-07-25T10:06:49.657Z,32.30
2022-07-25T10:09:50.468Z,32.00
2022-07-25T10:13:10.554Z,32.50
2022-07-25T10:16:17.731Z,32.90
2022-07-25T10:19:15.158Z,33.10
2022-07-25T10:22:12.524Z,32.70
2022-07-25T10:25:19.381Z,33.20
2022-07-25T10:28:19.869Z,33.60
2022-07-25T10:31:35.697Z,33.30
2022-07-25T10:34:33.132Z,32.70
2022-07-25T10:37:32.508Z,33.00
2022-07-25T10:40:37.672Z,32.80
2022-07-25T10:43:40.516Z,33.50
2022-07-25T10:46:37.463Z,34.50
2022-07-25T10:50:00.239Z,34.70
2022-07-25T10:53:00.733Z,34.30
2022-07-25T10:56:10.262Z,33.30
2022-07-25T10:59:07.576Z,33.20
2022-07-25T11:02:08.405Z,34.20
2022-07-25T11:05:06.479Z,34.10
2022-07-25T11:08:21.277Z,33.90
2022-07-25T11:11:18.764Z,34.10
2022-07-25T11:14:21.772Z,33.60
2022-07-25T11:17:22.403Z,34.30
2022-07-25T11:20:20.052Z,34.70
2022-07-25T11:23:22.373Z,35.60
2022-07-25T11:26:19.746Z,36.00
2022-07-25T11:29:27.017Z,36.20
2022-07-25T11:32:23.874Z,35.60
2022-07-25T11:35:27.146Z,35.40
2022-07-25T11:38:24.152Z,34.80
2022-07-25T11:41:31.509Z,35.00
2022-07-25T11:44:47.246Z,36.30
2022-07-25T11:48:07.309Z,36.20
2022-07-25T11:51:16.274Z,35.30
2022-07-25T11:54:16.608Z,35.90
2022-07-25T11:57:25.377Z,35.00
2022-07-25T12:00:22.645Z,36.30
2022-07-25T12:03:23.594Z,35.70
2022-07-25T12:06:20.522Z,36.10
2022-07-25T12:09:22.485Z,36.80
2022-07-25T12:12:19.356Z,37.00
2022-07-25T12:15:22.823Z,36.90
2022-07-25T12:18:19.681Z,36.70
2022-07-25T12:21:16.518Z,37.00
2022-07-25T12:24:13.384Z,37.80
2022-07-25T12:27:10.769Z,37.90
2022-07-25T12:30:09.850Z,37.70
2022-07-25T12:33:07.541Z,37.10
2022-07-25T12:36:08.455Z,37.50
2022-07-25T12:39:05.916Z,36.70
2022-07-25T12:42:02.971Z,36.70
2022-07-25T12:45:00.322Z,35.90
2022-07-25T12:47:57.186Z,35.80
2022-07-25T12:50:54.043Z,36.20
2022-07-25T12:53:50.920Z,35.60
2022-07-25T12:56:47.773Z,36.10
2022-07-25T12:59:44.706Z,35.50
2022-07-25T13:02:42.017Z,36.10
2022-07-25T13:05:40.417Z,35.70
2022-07-25T13:08:37.847Z,36.00
2022-07-25T13:11:34.695Z,36.50
2022-07-25T13:14:31.539Z,36.60
2022-07-25T13:17:28.525Z,36.40
2022-07-25T13:20:25.469Z,35.50
2022-07-25T13:23:22.556Z,35.70
2022-07-25T13:26:19.587Z,36.10
2022-07-25T13:29:16.471Z,36.10
2022-07-25T13:32:16.087Z,35.70
2022-07-25T13:35:16.411Z,35.60
2022-07-25T13:38:15.997Z,35.60
2022-07-25T13:41:14.385Z,35.50
2022-07-25T13:44:13.632Z,35.20
2022-07-25T13:47:10.485Z,35.10
2022-07-25T13:50:08.214Z,34.40
2022-07-25T13:53:06.126Z,34.70
2022-07-25T13:56:04.631Z,34.90
2022-07-25T13:59:04.061Z,34.50
2022-07-25T14:02:01.281Z,34.00
2022-07-25T14:05:03.552Z,34.10
2022-07-25T14:08:01.007Z,33.90
2022-07-25T14:10:58.187Z,33.70
2022-07-25T14:13:56.007Z,33.80
2022-07-25T14:16:53.104Z,33.90
2022-07-25T14:19:50.130Z,34.00
2022-07-25T14:22:46.972Z,34.90
2022-07-25T14:25:43.956Z,35.40
2022-07-25T14:28:40.794Z,34.90
2022-07-25T14:31:40.164Z,34.70
2022-07-25T14:34:40.428Z,34.70
2022-07-25T14:37:37.893Z,35.00
2022-07-25T14:40:34.784Z,34.10
2022-07-25T14:43:31.847Z,34.20
2022-07-25T14:46:31.084Z,33.90
2022-07-25T14:49:29.119Z,33.40
2022-07-25T14:52:26.036Z,33.60
2022-07-25T14:55:23.301Z,33.80
2022-07-25T14:58:20.230Z,33.60
2022-07-25T15:01:18.782Z,33.30
2022-07-25T15:04:19.735Z,33.20
2022-07-25T15:07:16.623Z,33.00
2022-07-25T15:10:14.389Z,33.50
2022-07-25T15:13:30.372Z,33.30
2022-07-25T15:16:27.751Z,33.80
2022-07-25T15:19:25.841Z,33.70
2022-07-25T15:22:23.473Z,32.90
2022-07-25T15:25:59.566Z,33.80
2022-07-25T15:28:38.123Z,33.70
2022-07-25T15:31:35.112Z,33.40
2022-07-25T15:34:33.160Z,32.80
2022-07-25T15:37:29.977Z,32.60
2022-07-25T15:40:27.423Z,32.80
2022-07-25T15:43:25.419Z,32.90
2022-07-25T15:46:22.339Z,32.60
2022-07-25T15:49:21.520Z,31.90
2022-07-25T15:52:18.392Z,32.10
2022-07-25T15:55:15.365Z,31.50
2022-07-25T15:58:12.839Z,31.60
2022-07-25T16:01:09.936Z,31.10
2022-07-25T16:04:06.869Z,31.30
2022-07-25T16:07:04.354Z,30.80
2022-07-25T16:10:01.639Z,30.30
2022-07-25T16:12:58.928Z,30.00
2022-07-25T16:15:56.136Z,29.90
2022-07-25T16:18:53.058Z,29.80
2022-07-25T16:21:49.913Z,29.60
2022-07-25T16:24:46.815Z,29.80
2022-07-25T16:27:43.719Z,30.50
2022-07-25T16:30:41.867Z,31.10
2022-07-25T16:33:39.310Z,30.90
2022-07-25T16:36:36.446Z,31.00
2022-07-25T16:39:33.375Z,31.40
2022-07-25T16:42:30.227Z,31.20
2022-07-25T16:45:28.154Z,31.20
2022-07-25T16:48:25.105Z,31.10
2022-07-25T16:51:22.173Z,31.10
2022-07-25T16:54:19.091Z,31.20
2022-07-25T16:57:16.099Z,30.90
2022-07-25T17:00:13.586Z,30.50
2022-07-25T17:03:10.450Z,30.00
2022-07-25T17:06:07.833Z,30.20
2022-07-25T17:09:05.505Z,31.30
2022-07-25T17:12:02.551Z,31.30
2022-07-25T17:14:59.380Z,30.70
2022-07-25T17:17:56.212Z,30.30
2022-07-25T17:20:54.546Z,30.20
2022-07-25T17:23:53.157Z,30.40
2022-07-25T17:26:50.086Z,30.20
2022-07-25T17:29:47.032Z,30.70
2022-07-25T17:32:44.044Z,30.10
2022-07-25T17:35:41.025Z,29.80
2022-07-25T17:38:38.406Z,30.40
2022-07-25T17:41:35.333Z,30.20
2022-07-25T17:44:32.207Z,29.90
2022-07-25T17:47:29.090Z,29.60
2022-07-25T17:50:29.299Z,29.40
2022-07-25T17:53:26.394Z,29.10
2022-07-25T17:56:23.279Z,28.70
2022-07-25T17:59:20.162Z,28.70
2022-07-25T18:02:17.231Z,28.40
2022-07-25T18:05:14.933Z,28.50
2022-07-25T18:08:11.802Z,28.30
2022-07-25T18:11:08.897Z,28.00
2022-07-25T18:14:05.975Z,27.90
2022-07-25T18:17:03.747Z,27.70
2022-07-25T18:20:00.582Z,27.70
2022-07-25T18:22:58.639Z,28.40
2022-07-25T18:25:55.618Z,28.00
2022-07-25T18:28:52.525Z,27.40
2022-07-25T18:31:49.421Z,27.30
2022-07-25T18:34:46.297Z,27.10
2022-07-25T18:37:43.283Z,27.00
2022-07-25T18:40:40.125Z,27.00
2022-07-25T18:43:36.980Z,26.90
2022-07-25T18:46:34.004Z,26.80
2022-07-25T18:49:31.051Z,26.70
2022-07-25T18:52:30.013Z,26.40
2022-07-25T18:55:26.886Z,26.10
2022-07-25T18:58:23.769Z,26.50
2022-07-25T19:01:20.642Z,26.40
2022-07-25T19:04:18.720Z,26.20
2022-07-25T19:07:15.724Z,26.00
2022-07-25T19:10:12.732Z,25.80
2022-07-25T19:13:15.223Z,25.60
2022-07-25T19:16:19.249Z,25.30
2022-07-25T19:19:16.612Z,25.20
2022-07-25T19:22:13.471Z,25.00
2022-07-25T19:25:10.969Z,24.90
2022-07-25T19:28:07.847Z,24.90
2022-07-25T19:31:04.829Z,25.00
2022-07-25T19:34:01.709Z,24.60
2022-07-25T19:36:58.722Z,24.50
2022-07-25T19:42:52.801Z,24.60
2022-07-25T19:45:49.710Z,24.60
2022-07-25T19:48:46.605Z,24.50
2022-07-25T19:51:43.521Z,24.20
2022-07-25T19:54:40.425Z,24.20
2022-07-25T19:57:37.302Z,24.10
2022-07-25T20:00:34.733Z,24.00
2022-07-25T20:03:31.582Z,23.90
2022-07-25T20:06:28.553Z,24.00
2022-07-25T20:09:25.396Z,23.80
2022-07-25T20:12:22.290Z,23.60
2022-07-25T20:15:19.147Z,23.60
2022-07-25T20:18:19.456Z,23.50
2022-07-25T20:21:17.999Z,23.60
2022-07-25T20:24:19.411Z,23.90
2022-07-25T20:27:18.231Z,24.00
2022-07-25T20:30:15.976Z,24.10
2022-07-25T20:33:12.810Z,24.40
2022-07-25T20:36:09.926Z,24.50
2022-07-25T20:39:08.326Z,24.60
2022-07-25T20:42:07.552Z,24.60
2022-07-25T20:45:06.546Z,24.70
2022-07-25T20:48:05.075Z,24.70
2022-07-25T20:51:02.041Z,24.60
2022-07-25T20:53:58.965Z,24.60
2022-07-25T20:56:56.057Z,24.50
2022-07-25T20:59:52.932Z,24.40
2022-07-25T21:02:49.833Z,24.40
2022-07-25T21:05:47.904Z,24.60
2022-07-25T21:08:44.815Z,24.40
2022-07-25T21:11:41.672Z,24.70
2022-07-25T21:14:38.519Z,24.70
2022-07-25T21:17:35.422Z,24.40
2022-07-25T21:20:32.286Z,24.30
2022-07-25T21:23:29.229Z,24.10
2022-07-25T21:26:26.066Z,24.00
2022-07-25T21:29:22.937Z,24.00
2022-07-25T21:32:21.269Z,23.90
2022-07-25T21:35:18.264Z,23.80
2022-07-25T21:38:26.028Z,23.90
2022-07-25T21:41:24.553Z,23.90
2022-07-25T21:44:21.467Z,23.80
2022-07-25T21:47:20.381Z,23.80
2022-07-25T21:50:36.028Z,23.50
2022-07-25T21:53:41.260Z,23.70
2022-07-25T21:56:38.318Z,23.70
2022-07-25T21:59:35.176Z,23.40
2022-07-25T22:02:31.993Z,23.40
2022-07-25T22:05:28.844Z,23.40
2022-07-25T22:08:26.397Z,23.30
2022-07-25T22:11:42.962Z,23.10
2022-07-25T22:14:41.105Z,22.90
2022-07-25T22:17:48.407Z,23.00
2022-07-25T22:20:46.647Z,23.00
2022-07-25T22:23:43.570Z,22.80
2022-07-25T22:26:40.426Z,22.80
2022-07-25T22:29:37.280Z,22.80
2022-07-25T22:32:34.121Z,22.50
2022-07-25T22:35:31.038Z,22.40
2022-07-25T22:38:27.893Z,22.30
2022-07-25T22:41:24.706Z,22.20
2022-07-25T22:44:21.597Z,22.10
2022-07-25T22:47:18.429Z,22.00
2022-07-25T22:50:15.285Z,21.90
2022-07-25T22:53:12.498Z,21.90
2022-07-25T22:56:09.431Z,21.80
2022-07-25T22:59:06.459Z,21.90
2022-07-25T23:02:03.536Z,21.90
2022-07-25T23:05:00.408Z,21.80
2022-07-25T23:07:57.258Z,21.80
2022-07-25T23:10:54.334Z,21.70
2022-07-25T23:13:51.682Z,21.80
2022-07-25T23:17:08.487Z,21.70
2022-07-25T23:20:06.852Z,21.70
2022-07-25T23:23:04.083Z,22.20
2022-07-25T23:26:01.214Z,22.10
2022-07-25T23:28:58.119Z,22.20
2022-07-25T23:31:55.002Z,22.20
2022-07-25T23:34:51.882Z,22.30
2022-07-25T23:37:48.716Z,22.30
2022-07-25T23:40:45.589Z,22.30
2022-07-25T23:43:57.397Z,22.40
2022-07-25T23:46:57.346Z,22.40
2022-07-25T23:49:54.356Z,22.50
2022-07-25T23:52:52.020Z,22.30
2022-07-25T23:55:48.859Z,22.20
2022-07-25T23:58:46.799Z,22.10
